.
WxDataArchive / Data Records for 2014-08-02
2014-08-01 August 2014 2014-08-03

Data Records for Saturday, 02 August 2014

Time	Temp	Chill	HIndex	Humid	Dewpt	 Wind 	HiWind	WindDir	Rain 	Barom
-----	----	-----	------	-----	-----	------	------	-------	-----	-----
00:00	67.1	67.1	67.1	83	61.8	2	7	112	0.17	30.071 
00:05	65.3	65.3	65.3	84	60.3	1	3	270	0.31	30.071 
00:10	64.5	64.5	64.5	87	60.5	0	2	270	0.28	30.071 
00:15	63.7	63.7	63.7	87	59.8	3	6	270	0.18	30.077 
00:20	63.1	63.1	63.1	89	59.8	4	7	270	0.10	30.077 
00:25	62.1	62.1	62.1	89	58.8	3	6	270	0.09	30.077 
00:30	61.5	61.5	61.5	90	58.5	3	5	270	0.08	30.086 
00:35	62.1	62.1	62.1	92	59.7	4	9	270	0.07	30.086 
00:40	62.6	62.6	62.6	88	59.0	3	7	270	0.12	30.086 
00:45	62.9	62.9	62.9	90	59.9	0	3	270	0.07	30.077 
00:50	62.7	62.7	62.7	90	59.7	0	1	270	0.04	30.077 
00:55	62.6	62.6	62.6	91	59.9	0	1	270	0.01	30.077 
01:00	62.4	62.4	62.4	91	59.7	0	2	270	0.01	30.081 
01:05	62.0	62.0	62.0	91	59.3	1	3	270	0.02	30.081 
01:10	61.6	61.6	61.6	91	58.9	0	1	270	0.00	30.081 
01:15	61.5	61.5	61.5	91	58.8	0	2	270	0.01	30.093 
01:20	61.5	61.5	61.5	92	59.2	0	1	270	0.00	30.093 
01:25	61.6	61.6	61.6	92	59.2	0	1	270	0.00	30.093 
01:30	61.8	61.8	61.8	93	59.8	1	3	68	0.00	30.094 
01:35	62.1	62.1	62.1	93	60.0	1	4	135	0.00	30.094 
01:40	62.1	62.1	62.1	93	60.0	1	3	112	0.00	30.094 
01:45	62.1	62.1	62.1	93	60.0	1	3	112	0.00	30.079 
01:50	61.8	61.8	61.8	92	59.4	1	5	135	0.00	30.079 
01:55	61.3	61.3	61.3	91	58.6	1	6	112	0.00	30.079 
02:00	61.3	61.3	61.3	90	58.3	1	5	68	0.00	30.065 
02:05	61.5	61.5	61.5	88	57.9	2	5	68	0.00	30.065 
02:10	61.8	61.8	61.8	88	58.2	1	5	68	0.00	30.065 
02:15	62.1	62.1	62.1	87	58.2	1	5	68	0.00	30.061 
02:20	62.3	62.3	62.3	87	58.4	1	3	68	0.00	30.061 
02:25	62.4	62.4	62.4	86	58.2	1	4	90	0.00	30.061 
02:30	62.6	62.6	62.6	85	58.0	0	2	90	0.00	30.054 
02:35	62.6	62.6	62.6	85	58.0	0	2	90	0.00	30.054 
02:40	62.6	62.6	62.6	82	57.0	2	7	68	0.00	30.054 
02:45	63.1	63.1	63.1	81	57.2	2	7	90	0.00	30.047 
02:50	63.4	63.4	63.4	81	57.5	2	6	90	0.00	30.047 
02:55	63.4	63.4	63.4	81	57.5	2	7	90	0.00	30.047 
03:00	63.5	63.5	63.5	80	57.2	2	7	90	0.00	30.034 
03:05	63.7	63.7	63.7	80	57.4	2	6	90	0.00	30.034 
03:10	63.5	63.5	63.5	80	57.2	2	6	68	0.00	30.034 
03:15	63.7	63.7	63.7	81	57.8	0	2	68	0.00	30.029 
03:20	63.5	63.5	63.5	81	57.6	0	2	68	0.00	30.029 
03:25	63.5	63.5	63.5	81	57.6	0	0	---	0.00	30.029 
03:30	63.2	63.2	63.2	83	57.9	0	0	---	0.00	30.032 
03:35	63.1	63.1	63.1	84	58.2	0	0	---	0.00	30.032 
03:40	62.7	62.7	62.7	84	57.8	0	0	---	0.00	30.032 
03:45	62.4	62.4	62.4	85	57.8	0	0	---	0.00	30.031 
03:50	62.1	62.1	62.1	86	57.9	0	0	---	0.00	30.031 
03:55	61.8	61.8	61.8	86	57.6	0	0	---	0.00	30.031 
04:00	61.6	61.6	61.6	86	57.4	0	0	---	0.00	30.031 
04:05	61.3	61.3	61.3	87	57.4	0	0	---	0.00	30.031 
04:10	61.2	61.2	61.2	87	57.3	0	0	---	0.00	30.031 
04:15	61.0	61.0	61.0	88	57.4	0	0	---	0.00	30.031 
04:20	60.9	60.9	60.9	88	57.3	0	0	---	0.00	30.031 
04:25	60.7	60.7	60.7	88	57.1	0	0	---	0.00	30.031 
04:30	60.4	60.4	60.4	89	57.1	0	0	---	0.00	30.036 
04:35	60.4	60.4	60.4	89	57.1	0	1	68	0.00	30.036 
04:40	60.2	60.2	60.2	90	57.3	0	0	---	0.00	30.036 
04:45	60.2	60.2	60.2	90	57.3	0	0	---	0.00	30.040 
04:50	60.1	60.1	60.1	90	57.2	0	0	---	0.00	30.040 
04:55	60.1	60.1	60.1	91	57.5	0	0	---	0.00	30.040 
05:00	59.9	59.9	59.9	91	57.3	0	0	---	0.00	30.041 
05:05	59.9	59.9	59.9	91	57.3	0	0	---	0.00	30.041 
05:10	59.8	59.8	59.8	91	57.2	0	0	---	0.00	30.041 
05:15	59.8	59.8	59.8	91	57.2	0	0	---	0.00	30.057 
05:20	59.8	59.8	59.8	92	57.5	0	0	---	0.00	30.057 
05:25	59.6	59.6	59.6	92	57.3	0	0	---	0.00	30.057 
05:30	59.6	59.6	59.6	92	57.3	0	0	---	0.00	30.067 
05:35	59.5	59.5	59.5	92	57.2	0	0	---	0.00	30.067 
05:40	59.5	59.5	59.5	92	57.2	0	0	---	0.00	30.067 
05:45	59.5	59.5	59.5	92	57.2	0	0	---	0.00	30.067 
05:50	59.3	59.3	59.3	92	57.0	0	0	---	0.00	30.067 
05:55	59.3	59.3	59.3	92	57.0	0	0	---	0.00	30.067 
06:00	59.3	59.3	59.3	92	57.0	0	0	---	0.00	30.067 
06:05	59.3	59.3	59.3	92	57.0	0	0	---	0.00	30.067 
06:10	59.3	59.3	59.3	93	57.3	0	0	---	0.00	30.067 
06:15	59.2	59.2	59.2	93	57.2	0	0	---	0.00	30.071 
06:20	59.2	59.2	59.2	93	57.2	0	0	---	0.00	30.071 
06:25	59.3	59.3	59.3	93	57.3	0	0	---	0.00	30.071 
06:30	59.3	59.3	59.3	93	57.3	0	0	---	0.00	30.077 
06:35	59.3	59.3	59.3	93	57.3	0	0	---	0.00	30.077 
06:40	59.5	59.5	59.5	93	57.5	0	0	---	0.00	30.077 
06:45	59.5	59.5	59.5	93	57.5	0	0	---	0.00	30.086 
06:50	59.3	59.3	59.3	93	57.3	0	0	---	0.00	30.086 
06:55	59.3	59.3	59.3	93	57.3	0	0	---	0.00	30.086 
07:00	59.3	59.3	59.3	93	57.3	0	0	---	0.00	30.096 
07:05	59.3	59.3	59.3	93	57.3	0	0	---	0.00	30.096 
07:10	59.3	59.3	59.3	93	57.3	0	0	---	0.00	30.096 
07:15	59.3	59.3	59.3	94	57.6	0	0	---	0.00	30.102 
07:20	59.5	59.5	59.5	94	57.8	0	0	---	0.00	30.102 
07:25	59.5	59.5	59.5	94	57.8	0	0	---	0.00	30.102 
07:30	59.6	59.6	59.6	94	57.9	0	0	---	0.00	30.103 
07:35	59.6	59.6	59.6	94	57.9	0	0	---	0.00	30.103 
07:40	59.8	59.8	59.8	94	58.1	0	0	---	0.00	30.103 
07:45	59.8	59.8	59.8	94	58.1	0	0	---	0.00	30.106 
07:50	59.9	59.9	59.9	94	58.2	0	0	---	0.00	30.106 
07:55	60.1	60.1	60.1	94	58.4	0	0	---	0.00	30.106 
08:00	60.2	60.2	60.2	94	58.5	0	0	---	0.00	30.112 
08:05	60.4	60.4	60.4	94	58.7	0	0	---	0.00	30.112 
08:10	60.4	60.4	60.4	94	58.7	0	0	---	0.00	30.112 
08:15	60.5	60.5	60.5	94	58.8	0	0	---	0.00	30.115 
08:20	60.7	60.7	60.7	94	59.0	0	0	---	0.00	30.115 
08:25	60.7	60.7	60.7	94	59.0	0	0	---	0.00	30.115 
08:30	60.7	60.7	60.7	94	59.0	0	0	---	0.00	30.118 
08:35	60.9	60.9	60.9	94	59.2	0	0	---	0.00	30.118 
08:40	61.0	61.0	61.0	94	59.3	0	0	---	0.00	30.118 
08:45	61.2	61.2	61.2	94	59.5	0	0	---	0.00	30.120 
08:50	61.5	61.5	61.5	94	59.8	0	0	---	0.00	30.120 
08:55	62.0	62.0	62.0	94	60.2	0	1	68	0.00	30.120 
09:00	62.4	62.4	62.4	94	60.6	0	0	---	0.00	30.118 
09:05	63.1	63.1	63.1	94	61.3	0	0	---	0.00	30.118 
09:10	63.7	63.7	63.7	94	61.9	0	0	---	0.00	30.118 
09:15	64.3	64.3	64.3	93	62.2	0	1	68	0.00	30.116 
09:20	65.2	65.2	65.2	93	63.1	0	0	---	0.00	30.116 
09:25	65.6	65.6	65.6	92	63.2	0	0	---	0.00	30.116 
09:30	66.3	66.3	66.3	91	63.6	0	0	---	0.00	30.112 
09:35	67.1	67.1	67.1	90	64.1	0	1	68	0.00	30.112 
09:40	67.8	67.8	67.8	88	64.1	0	0	---	0.00	30.112 
09:45	68.8	68.8	68.8	84	63.8	0	1	68	0.00	30.110 
09:50	69.4	69.4	69.4	81	63.3	0	1	68	0.00	30.110 
09:55	69.6	69.6	69.6	78	62.4	0	1	68	0.00	30.110 
10:00	70.3	70.3	70.3	77	62.7	0	1	68	0.00	30.107 
10:05	70.8	70.8	70.8	75	62.5	0	1	68	0.00	30.107 
10:10	71.3	71.3	71.3	75	63.0	0	2	68	0.00	30.107 
10:15	71.6	71.6	71.6	74	62.9	0	1	68	0.00	30.103 
10:20	71.8	71.8	71.8	74	63.1	0	3	68	0.00	30.103 
10:25	71.8	71.8	71.8	73	62.7	0	1	68	0.00	30.103 
10:30	72.3	72.3	72.3	76	64.3	0	0	---	0.00	30.103 
10:35	72.5	72.5	72.5	71	62.5	0	1	68	0.00	30.103 
10:40	73.0	73.0	73.0	70	62.6	0	1	68	0.00	30.103 
10:45	73.5	73.5	73.5	69	62.7	0	1	68	0.00	30.098 
10:50	73.7	73.7	73.7	67	62.0	0	2	68	0.00	30.098 
10:55	73.7	73.7	73.7	69	62.9	1	3	315	0.00	30.098 
11:00	74.0	74.0	74.0	69	63.2	0	2	315	0.00	30.099 
11:05	74.2	74.2	74.2	68	62.9	0	2	315	0.00	30.099 
11:10	74.2	74.2	74.2	65	61.7	1	4	315	0.00	30.099 
11:15	74.4	74.4	74.4	66	62.3	0	2	315	0.00	30.101 
11:20	74.6	74.6	74.6	66	62.5	1	3	315	0.00	30.101 
11:25	74.7	74.7	74.7	65	62.1	0	1	315	0.00	30.101 
11:30	74.9	74.9	74.9	66	62.8	0	2	315	0.00	30.102 
11:35	75.6	75.6	77.5	66	63.4	1	3	0	0.00	30.102 
11:40	76.3	76.3	78.2	63	62.8	1	4	112	0.00	30.102 
11:45	76.7	76.7	78.5	61	62.2	0	2	112	0.00	30.102 
11:50	77.0	77.0	78.8	59	61.6	2	5	112	0.00	30.102 
11:55	77.0	77.0	78.7	57	60.6	1	4	292	0.00	30.102 
12:00	76.3	76.3	78.3	57	59.9	1	5	315	0.00	30.103 
12:05	76.5	76.5	78.4	61	62.0	1	3	68	0.00	30.103 
12:10	76.8	76.8	78.6	59	61.4	0	3	68	0.00	30.103 
12:15	76.8	76.8	78.6	55	59.4	0	3	68	0.00	30.104 
12:20	77.4	77.4	78.9	53	58.9	1	3	90	0.00	30.104 
12:25	78.1	78.1	79.5	54	60.1	0	2	90	0.00	30.104 
12:30	78.6	78.6	79.8	52	59.5	1	3	90	0.00	30.101 
12:35	78.8	78.8	80.1	54	60.7	0	2	90	0.00	30.101 
12:40	78.8	78.8	80.2	56	61.8	0	1	90	0.00	30.101 
12:45	79.0	79.0	80.5	57	62.4	0	3	90	0.00	30.096 
12:50	79.4	79.4	80.5	52	60.2	1	3	90	0.00	30.096 
12:55	79.4	79.4	80.5	53	60.8	1	3	90	0.00	30.096 
13:00	79.2	79.2	80.2	51	59.5	1	4	90	0.00	30.095 
13:05	79.4	79.4	80.5	53	60.8	1	3	90	0.00	30.095 
13:10	79.2	79.2	80.3	52	60.0	0	1	90	0.00	30.095 
13:15	79.4	79.4	80.3	50	59.1	1	4	90	0.00	30.093 
13:20	79.4	79.4	80.5	52	60.2	1	5	112	0.00	30.093 
13:25	79.6	79.6	80.5	51	59.9	1	3	112	0.00	30.093 
13:30	79.6	79.6	80.5	50	59.3	1	3	90	0.00	30.087 
13:35	79.4	79.4	80.4	51	59.7	1	3	68	0.00	30.087 
13:40	79.0	79.0	80.0	50	58.7	1	3	68	0.00	30.087 
13:45	78.6	78.6	79.8	52	59.5	0	1	68	0.00	30.082 
13:50	78.3	78.3	79.7	54	60.3	0	3	68	0.00	30.082 
13:55	77.9	77.9	79.4	55	60.4	0	0	---	0.00	30.082 
14:00	77.6	77.6	79.2	57	61.1	0	2	68	0.01	30.084 
14:05	77.0	77.0	78.8	64	63.9	0	3	292	0.03	30.084 
14:10	74.6	74.6	74.6	72	65.0	0	4	292	0.08	30.084 
14:15	73.0	73.0	73.0	76	65.0	0	0	---	0.01	30.085 
14:20	72.3	72.3	72.3	80	65.8	0	0	---	0.00	30.085 
14:25	72.8	72.8	72.8	83	67.3	0	1	292	0.00	30.085 
14:30	72.8	72.8	72.8	81	66.6	0	1	292	0.00	30.080 
14:35	73.0	73.0	73.0	81	66.8	0	1	292	0.00	30.080 
14:40	73.0	73.0	73.0	82	67.2	0	1	292	0.00	30.080 
14:45	73.0	73.0	73.0	83	67.5	0	0	---	0.00	30.080 
14:50	73.3	73.3	73.3	84	68.2	0	1	292	0.00	30.080 
14:55	73.9	73.9	73.9	82	68.0	0	1	292	0.00	30.080 
15:00	74.4	74.4	74.4	78	67.1	0	1	292	0.00	30.077 
15:05	74.2	74.2	74.2	77	66.5	0	1	292	0.00	30.077 
15:10	74.0	74.0	74.0	78	66.7	0	1	292	0.00	30.077 
15:15	73.7	73.7	73.7	78	66.4	0	0	---	0.00	30.072 
15:20	73.3	73.3	73.3	78	66.0	0	1	292	0.00	30.072 
15:25	72.8	72.8	72.8	77	65.2	0	2	292	0.00	30.072 
15:30	72.5	72.5	72.5	78	65.2	0	1	292	0.00	30.084 
15:35	72.0	72.0	72.0	80	65.5	0	2	292	0.03	30.084 
15:40	71.3	71.3	71.3	81	65.2	0	0	---	0.03	30.084 
15:45	70.3	70.3	70.3	83	64.9	0	0	---	0.00	30.081 
15:50	69.9	69.9	69.9	85	65.2	0	0	---	0.00	30.081 
15:55	69.6	69.6	69.6	86	65.2	0	0	---	0.00	30.081 
16:00	69.6	69.6	69.6	88	65.9	0	0	---	0.00	30.078 
16:05	69.6	69.6	69.6	88	65.9	0	0	---	0.00	30.078 
16:10	69.4	69.4	69.4	89	66.0	0	0	---	0.00	30.078 
16:15	69.6	69.6	69.6	89	66.2	0	0	---	0.00	30.076 
16:20	69.8	69.8	69.8	90	66.7	0	0	---	0.00	30.076 
16:25	69.9	69.9	69.9	90	66.8	0	0	---	0.00	30.076 
16:30	70.1	70.1	70.1	91	67.3	0	0	---	0.00	30.072 
16:35	70.4	70.4	70.4	91	67.6	0	0	---	0.00	30.072 
16:40	70.8	70.8	70.8	92	68.4	0	0	---	0.00	30.072 
16:45	70.8	70.8	70.8	92	68.4	0	0	---	0.00	30.069 
16:50	70.9	70.9	70.9	92	68.5	0	0	---	0.00	30.069 
16:55	71.1	71.1	71.1	92	68.7	0	0	---	0.00	30.069 
17:00	71.1	71.1	71.1	92	68.7	0	0	---	0.00	30.066 
17:05	70.9	70.9	70.9	91	68.1	0	0	---	0.00	30.066 
17:10	71.3	71.3	71.3	92	68.8	0	0	---	0.00	30.066 
17:15	71.5	71.5	71.5	92	69.0	0	0	---	0.00	30.064 
17:20	71.6	71.6	71.6	92	69.1	0	0	---	0.00	30.064 
17:25	71.8	71.8	71.8	91	69.0	0	0	---	0.00	30.064 
17:30	71.8	71.8	71.8	91	69.0	0	0	---	0.00	30.065 
17:35	72.0	72.0	72.0	91	69.2	0	0	---	0.00	30.065 
17:40	72.1	72.1	72.1	91	69.3	0	0	---	0.00	30.065 
17:45	72.1	72.1	72.1	90	69.0	0	0	---	0.00	30.062 
17:50	72.3	72.3	72.3	90	69.2	0	0	---	0.00	30.062 
17:55	72.1	72.1	72.1	89	68.7	0	1	68	0.00	30.062 
18:00	72.3	72.3	72.3	88	68.5	0	0	---	0.00	30.060 
18:05	72.3	72.3	72.3	88	68.5	0	0	---	0.00	30.060 
18:10	72.3	72.3	72.3	87	68.2	0	0	---	0.00	30.060 
18:15	72.5	72.5	72.5	87	68.4	0	0	---	0.00	30.054 
18:20	72.7	72.7	72.7	86	68.3	0	0	---	0.00	30.054 
18:25	72.5	72.5	72.5	85	67.7	0	0	---	0.00	30.054 
18:30	72.5	72.5	72.5	84	67.4	0	0	---	0.00	30.052 
18:35	72.7	72.7	72.7	85	67.9	0	0	---	0.00	30.052 
18:40	72.7	72.7	72.7	84	67.6	0	0	---	0.00	30.052 
18:45	72.7	72.7	72.7	83	67.2	0	0	---	0.00	30.046 
18:50	72.8	72.8	72.8	83	67.3	0	0	---	0.00	30.046 
18:55	72.7	72.7	72.7	81	66.5	0	0	---	0.00	30.046 
19:00	72.7	72.7	72.7	79	65.8	0	0	---	0.00	30.051 
19:05	72.8	72.8	72.8	79	65.9	0	0	---	0.00	30.051 
19:10	72.8	72.8	72.8	80	66.3	0	0	---	0.00	30.051 
19:15	72.8	72.8	72.8	80	66.3	0	0	---	0.00	30.051 
19:20	72.8	72.8	72.8	80	66.3	0	0	---	0.00	30.051 
19:25	72.8	72.8	72.8	80	66.3	0	0	---	0.00	30.051 
19:30	73.0	73.0	73.0	81	66.8	0	0	---	0.00	30.054 
19:35	72.8	72.8	72.8	78	65.5	0	0	---	0.00	30.054 
19:40	72.8	72.8	72.8	78	65.5	0	0	---	0.00	30.054 
19:45	72.8	72.8	72.8	79	65.9	0	0	---	0.00	30.053 
19:50	72.8	72.8	72.8	79	65.9	0	0	---	0.00	30.053 
19:55	72.8	72.8	72.8	79	65.9	0	0	---	0.00	30.053 
20:00	72.8	72.8	72.8	80	66.3	0	0	---	0.00	30.054 
20:05	72.8	72.8	72.8	81	66.6	0	0	---	0.00	30.054 
20:10	72.8	72.8	72.8	82	67.0	0	0	---	0.00	30.054 
20:15	72.7	72.7	72.7	82	66.9	0	0	---	0.00	30.055 
20:20	72.7	72.7	72.7	82	66.9	0	0	---	0.00	30.055 
20:25	72.7	72.7	72.7	83	67.2	0	0	---	0.00	30.055 
20:30	72.5	72.5	72.5	83	67.0	0	0	---	0.00	30.055 
20:35	72.3	72.3	72.3	83	66.8	0	0	---	0.00	30.055 
20:40	72.1	72.1	72.1	84	67.0	0	0	---	0.00	30.055 
20:45	71.8	71.8	71.8	84	66.7	0	0	---	0.00	30.057 
20:50	71.6	71.6	71.6	84	66.5	0	0	---	0.00	30.057 
20:55	71.3	71.3	71.3	84	66.2	0	0	---	0.00	30.057 
21:00	70.9	70.9	70.9	85	66.2	0	0	---	0.00	30.058 
21:05	70.6	70.6	70.6	85	65.9	0	0	---	0.00	30.058 
21:10	70.4	70.4	70.4	85	65.7	0	0	---	0.00	30.058 
21:15	70.3	70.3	70.3	86	65.9	0	0	---	0.00	30.059 
21:20	69.9	69.9	69.9	87	65.8	0	0	---	0.00	30.059 
21:25	69.8	69.8	69.8	87	65.7	0	0	---	0.00	30.059 
21:30	69.6	69.6	69.6	88	65.9	0	0	---	0.00	30.061 
21:35	69.4	69.4	69.4	88	65.7	0	0	---	0.00	30.061 
21:40	69.1	69.1	69.1	88	65.4	0	0	---	0.00	30.061 
21:45	68.9	68.9	68.9	88	65.2	0	0	---	0.00	30.067 
21:50	68.9	68.9	68.9	89	65.5	0	0	---	0.00	30.067 
21:55	68.8	68.8	68.8	89	65.4	0	0	---	0.00	30.067 
22:00	68.8	68.8	68.8	90	65.7	0	0	---	0.01	30.073 
22:05	68.8	68.8	68.8	90	65.7	0	0	---	0.00	30.073 
22:10	68.8	68.8	68.8	91	66.1	0	0	---	0.00	30.073 
22:15	68.6	68.6	68.6	91	65.9	0	0	---	0.00	30.070 
22:20	68.4	68.4	68.4	91	65.7	0	0	---	0.00	30.070 
22:25	68.3	68.3	68.3	91	65.6	0	0	---	0.00	30.070 
22:30	68.1	68.1	68.1	91	65.4	0	0	---	0.00	30.065 
22:35	68.1	68.1	68.1	92	65.7	0	0	---	0.00	30.065 
22:40	67.9	67.9	67.9	92	65.5	0	0	---	0.00	30.065 
22:45	67.8	67.8	67.8	92	65.4	0	0	---	0.00	30.069 
22:50	67.8	67.8	67.8	92	65.4	0	0	---	0.00	30.069 
22:55	67.6	67.6	67.6	92	65.2	0	0	---	0.00	30.069 
23:00	67.6	67.6	67.6	92	65.2	0	0	---	0.00	30.067 
23:05	67.6	67.6	67.6	92	65.2	0	0	---	0.00	30.067 
23:10	67.8	67.8	67.8	93	65.7	0	0	---	0.00	30.067 
23:15	67.8	67.8	67.8	93	65.7	0	0	---	0.00	30.067 
23:20	67.6	67.6	67.6	93	65.5	0	1	68	0.00	30.067 
23:25	67.3	67.3	67.3	93	65.2	0	0	---	0.00	30.067 
23:30	66.9	66.9	66.9	92	64.5	0	0	---	0.01	30.073 
23:35	66.8	66.8	66.8	93	64.7	0	0	---	0.00	30.073 
23:40	66.6	66.6	66.6	93	64.5	0	0	---	0.00	30.073 
23:45	66.4	66.4	66.4	93	64.3	0	0	---	0.00	30.072 
23:50	66.3	66.3	66.3	93	64.2	0	0	---	0.01	30.072 
23:55	66.3	66.3	66.3	93	64.2	0	0	---	0.00	30.072 

CoCoRaHS
IN-AL-39
A2 Web Hosting
Creative Commons License
GoDaddy
search engine by freefind advanced

loaded 2018-11-17 05:38:11 • last modified 2010-11-18 10:43:29
Privacy PolicyDisclaimer
• wx.awcolley.com is powered by PmWiki v.2002016 •
• all content (unless otherwise noted) © 2018 A W Colley